createdAt,value
2022-11-10T00:04:06.023Z,3.73
2022-11-10T00:06:54.241Z,3.90
2022-11-10T00:09:42.116Z,2.73
2022-11-10T00:12:41.577Z,2.43
2022-11-10T00:18:32.151Z,2.60
2022-11-10T00:21:20.281Z,2.70
2022-11-10T00:24:07.342Z,2.57
2022-11-10T00:26:54.828Z,2.50
2022-11-10T00:29:41.479Z,2.13
2022-11-10T00:32:28.125Z,2.40
2022-11-10T00:35:15.019Z,2.10
2022-11-10T00:38:04.380Z,2.10
2022-11-10T00:40:51.106Z,2.63
2022-11-10T00:43:37.778Z,2.10
2022-11-10T00:46:24.831Z,2.30
2022-11-10T00:49:11.714Z,2.73
2022-11-10T00:51:58.487Z,2.70
2022-11-10T00:54:46.876Z,2.60
2022-11-10T00:57:33.391Z,2.40
2022-11-10T01:00:20.203Z,2.93
2022-11-10T01:03:07.165Z,2.80
2022-11-10T01:05:54.050Z,2.07
2022-11-10T01:08:42.020Z,2.20
2022-11-10T01:11:30.233Z,2.30
2022-11-10T01:14:16.959Z,2.60
2022-11-10T01:17:03.602Z,2.40
2022-11-10T01:19:50.584Z,2.50
2022-11-10T01:22:37.153Z,3.03
2022-11-10T01:25:23.858Z,2.63
2022-11-10T01:28:11.934Z,3.10
2022-11-10T01:30:59.004Z,3.20
2022-11-10T01:33:46.060Z,2.53
2022-11-10T01:36:32.906Z,3.07
2022-11-10T01:39:19.996Z,2.70
2022-11-10T01:42:06.988Z,3.00
2022-11-10T01:45:27.304Z,2.50
2022-11-10T01:48:19.908Z,2.63
2022-11-10T01:51:11.122Z,2.53
2022-11-10T01:54:00.380Z,2.47
2022-11-10T01:56:52.363Z,2.50
2022-11-10T01:59:44.512Z,1.93
2022-11-10T02:02:36.078Z,2.23
2022-11-10T02:05:24.782Z,2.03
2022-11-10T02:08:14.441Z,2.97
2022-11-10T02:11:01.387Z,2.70
2022-11-10T02:13:48.792Z,2.50
2022-11-10T02:16:40.112Z,2.33
2022-11-10T02:19:28.100Z,2.47
2022-11-10T02:22:16.176Z,2.53
2022-11-10T02:25:03.163Z,2.30
2022-11-10T02:27:49.914Z,2.67
2022-11-10T02:30:36.581Z,2.07
2022-11-10T02:33:23.878Z,2.27
2022-11-10T02:36:11.064Z,2.07
2022-11-10T02:38:59.471Z,3.23
2022-11-10T02:41:46.293Z,15.23
2022-11-10T02:44:32.976Z,7.10
2022-11-10T02:47:19.743Z,2.90
2022-11-10T02:50:07.583Z,2.93
2022-11-10T02:52:54.380Z,2.40
2022-11-10T02:55:42.159Z,3.03
2022-11-10T02:58:28.859Z,2.50
2022-11-10T03:01:15.672Z,2.40
2022-11-10T03:04:02.555Z,2.53
2022-11-10T03:06:49.375Z,3.10
2022-11-10T03:09:36.190Z,3.10
2022-11-10T03:12:24.733Z,2.80
2022-11-10T03:15:12.909Z,2.10
2022-11-10T03:18:04.481Z,2.70
2022-11-10T03:20:51.635Z,2.60
2022-11-10T03:23:38.477Z,2.93
2022-11-10T03:26:28.228Z,2.40
2022-11-10T03:29:16.399Z,2.97
2022-11-10T03:32:03.445Z,2.40
2022-11-10T03:34:49.967Z,2.50
2022-11-10T03:37:36.769Z,2.70
2022-11-10T03:40:23.493Z,2.23
2022-11-10T03:43:12.386Z,2.50
2022-11-10T03:46:00.685Z,2.37
2022-11-10T03:48:53.118Z,3.10
2022-11-10T03:51:43.298Z,3.30
2022-11-10T03:54:29.824Z,2.93
2022-11-10T03:57:17.018Z,3.07
2022-11-10T04:00:03.683Z,2.60
2022-11-10T04:02:51.567Z,2.63
2022-11-10T04:05:56.137Z,2.80
2022-11-10T04:09:01.401Z,2.83
2022-11-10T04:12:05.310Z,2.87
2022-11-10T04:15:10.030Z,3.10
2022-11-10T04:18:18.729Z,2.87
2022-11-10T04:21:05.760Z,3.43
2022-11-10T04:23:52.124Z,2.50
2022-11-10T04:26:40.543Z,2.90
2022-11-10T04:29:26.989Z,2.97
2022-11-10T04:32:13.793Z,2.80
2022-11-10T04:35:01.774Z,2.23
2022-11-10T04:37:48.272Z,2.40
2022-11-10T04:40:35.225Z,2.63
2022-11-10T04:43:22.142Z,2.60
2022-11-10T04:46:17.929Z,3.70
2022-11-10T04:49:06.317Z,3.10
2022-11-10T04:51:54.415Z,4.40
2022-11-10T04:54:41.093Z,3.03
2022-11-10T04:57:27.913Z,3.10
2022-11-10T05:00:15.973Z,3.00
2022-11-10T05:03:03.843Z,2.87
2022-11-10T05:05:50.830Z,2.90
2022-11-10T05:08:39.644Z,2.90
2022-11-10T05:11:26.284Z,2.60
2022-11-10T05:14:13.005Z,3.03
2022-11-10T05:17:00.378Z,2.93
2022-11-10T05:19:47.409Z,2.80
2022-11-10T05:22:34.000Z,3.40
2022-11-10T05:25:22.256Z,3.03
2022-11-10T05:28:11.504Z,3.10
2022-11-10T05:30:58.086Z,3.07
2022-11-10T05:33:44.720Z,3.20
2022-11-10T05:36:31.333Z,2.83
2022-11-10T05:39:18.135Z,3.00
2022-11-10T05:42:06.735Z,3.37
2022-11-10T05:44:53.535Z,3.60
2022-11-10T05:47:40.659Z,3.37
2022-11-10T05:50:27.533Z,3.43
2022-11-10T05:53:14.796Z,3.33
2022-11-10T05:56:01.837Z,3.43
2022-11-10T05:58:49.971Z,3.07
2022-11-10T06:01:36.732Z,3.57
2022-11-10T06:04:23.465Z,3.73
2022-11-10T06:07:11.925Z,3.30
2022-11-10T06:09:58.882Z,3.17
2022-11-10T06:12:46.621Z,3.43
2022-11-10T06:15:37.147Z,3.00
2022-11-10T06:18:24.225Z,2.90
2022-11-10T06:21:11.543Z,3.30
2022-11-10T06:24:00.405Z,3.33
2022-11-10T06:27:15.951Z,3.00
2022-11-10T06:30:10.978Z,3.53
2022-11-10T06:33:11.030Z,3.20
2022-11-10T06:35:59.258Z,3.30
2022-11-10T06:38:46.204Z,3.33
2022-11-10T06:41:37.321Z,3.30
2022-11-10T06:44:26.517Z,3.27
2022-11-10T06:47:17.783Z,3.27
2022-11-10T06:50:09.199Z,2.80
2022-11-10T06:53:13.612Z,3.63
2022-11-10T06:56:00.644Z,3.40
2022-11-10T06:58:50.835Z,3.60
2022-11-10T07:01:39.370Z,3.97
2022-11-10T07:04:31.112Z,6.93
2022-11-10T07:07:27.608Z,3.97
2022-11-10T07:13:54.430Z,3.07
2022-11-10T07:16:41.752Z,3.20
2022-11-10T07:19:29.673Z,2.90
2022-11-10T07:22:16.152Z,2.83
2022-11-10T07:25:04.857Z,2.33
2022-11-10T07:27:54.755Z,2.97
2022-11-10T07:30:41.654Z,2.70
2022-11-10T07:33:29.791Z,2.87
2022-11-10T07:36:16.472Z,2.57
2022-11-10T07:39:04.322Z,2.67
2022-11-10T07:41:53.034Z,3.07
2022-11-10T07:44:41.872Z,2.77
2022-11-10T07:47:28.611Z,2.87
2022-11-10T07:50:15.356Z,4.27
2022-11-10T07:53:09.049Z,3.43
2022-11-10T07:55:56.149Z,3.13
2022-11-10T07:58:45.735Z,3.00
2022-11-10T08:01:34.043Z,2.80
2022-11-10T08:04:20.972Z,2.83
2022-11-10T08:07:07.763Z,2.67
2022-11-10T08:09:56.836Z,2.50
2022-11-10T08:16:03.255Z,2.50
2022-11-10T08:18:54.385Z,2.63
2022-11-10T08:21:49.372Z,2.78
2022-11-10T08:24:41.103Z,2.65
2022-11-10T08:27:44.167Z,2.50
2022-11-10T08:30:31.798Z,2.25
2022-11-10T08:33:30.821Z,2.50
2022-11-10T08:36:27.262Z,2.53
2022-11-10T08:39:38.101Z,2.30
2022-11-10T08:42:41.197Z,2.35
2022-11-10T08:45:38.061Z,2.33
2022-11-10T08:48:36.863Z,2.63
2022-11-10T08:51:39.565Z,2.33
2022-11-10T08:54:31.737Z,2.50
2022-11-10T08:57:18.213Z,2.45
2022-11-10T09:00:05.654Z,2.28
2022-11-10T09:02:52.119Z,2.75
2022-11-10T09:05:39.636Z,2.75
2022-11-10T09:08:26.628Z,2.30
2022-11-10T09:11:13.119Z,2.50
2022-11-10T09:13:59.816Z,2.60
2022-11-10T09:16:46.254Z,2.40
2022-11-10T09:19:32.841Z,2.92
2022-11-10T09:22:20.815Z,2.33
2022-11-10T09:25:07.750Z,2.55
2022-11-10T09:27:53.925Z,2.20
2022-11-10T09:30:40.717Z,2.20
2022-11-10T09:33:27.005Z,2.33
2022-11-10T09:36:13.230Z,2.38
2022-11-10T09:39:00.928Z,2.70
2022-11-10T09:41:50.555Z,2.80
2022-11-10T09:44:56.952Z,2.30
2022-11-10T09:47:58.718Z,2.53
2022-11-10T09:50:49.517Z,2.42
2022-11-10T09:53:39.723Z,2.90
2022-11-10T09:56:56.463Z,2.35
2022-11-10T09:59:52.444Z,2.17
2022-11-10T10:03:14.743Z,2.53
2022-11-10T10:13:59.932Z,2.67
2022-11-10T10:21:45.555Z,2.45
2022-11-10T10:28:53.919Z,2.00
2022-11-10T10:34:58.786Z,2.40
2022-11-10T10:56:03.560Z,2.25
2022-11-10T10:58:55.131Z,2.75
2022-11-10T11:02:19.902Z,2.55
2022-11-10T11:05:16.552Z,2.40
2022-11-10T11:08:12.863Z,2.20
2022-11-10T11:11:12.752Z,2.38
2022-11-10T11:17:29.723Z,2.17
2022-11-10T11:20:16.883Z,2.47
2022-11-10T11:23:15.544Z,2.35
2022-11-10T11:26:13.535Z,2.17
2022-11-10T11:29:07.421Z,2.45
2022-11-10T11:32:10.015Z,2.00
2022-11-10T11:35:08.966Z,2.00
2022-11-10T11:38:04.276Z,2.10
2022-11-10T11:47:06.768Z,2.08
2022-11-10T11:50:05.852Z,1.90
2022-11-10T11:53:05.727Z,2.38
2022-11-10T11:56:05.893Z,2.10
2022-11-10T11:59:04.936Z,1.90
2022-11-10T12:02:06.141Z,1.80
2022-11-10T12:05:09.428Z,2.40
2022-11-10T12:08:03.166Z,2.22
2022-11-10T12:11:01.262Z,1.90
2022-11-10T12:14:00.827Z,2.03
2022-11-10T12:16:58.607Z,1.88
2022-11-10T12:19:57.056Z,1.98
2022-11-10T12:22:54.629Z,1.95
2022-11-10T12:25:50.341Z,1.52
2022-11-10T12:28:42.912Z,2.42
2022-11-10T12:31:32.882Z,1.70
2022-11-10T12:34:27.357Z,1.65
2022-11-10T12:37:26.560Z,1.65
2022-11-10T12:40:17.778Z,2.35
2022-11-10T12:43:10.134Z,1.92
2022-11-10T12:46:19.582Z,2.45
2022-11-10T12:49:23.442Z,2.22
2022-11-10T12:52:22.319Z,2.30
2022-11-10T12:55:15.107Z,2.00
2022-11-10T12:58:06.589Z,2.08
2022-11-10T13:01:02.570Z,1.60
2022-11-10T13:04:00.253Z,2.15
2022-11-10T13:06:51.065Z,1.85
2022-11-10T13:13:02.848Z,2.20
2022-11-10T13:15:56.570Z,2.20
2022-11-10T13:19:02.267Z,2.08
2022-11-10T13:22:10.624Z,2.00
2022-11-10T13:25:32.755Z,2.03
2022-11-10T13:28:54.490Z,2.55
2022-11-10T13:31:55.050Z,2.30
2022-11-10T13:34:43.572Z,2.20
2022-11-10T13:37:52.749Z,2.28
2022-11-10T13:40:44.448Z,2.22
2022-11-10T13:43:34.966Z,2.15
2022-11-10T13:46:32.670Z,1.90
2022-11-10T13:49:45.030Z,2.38
2022-11-10T13:52:48.992Z,2.30
2022-11-10T13:55:53.932Z,2.20
2022-11-10T13:58:47.350Z,2.25
2022-11-10T14:01:34.735Z,2.33
2022-11-10T14:05:00.145Z,2.28
2022-11-10T14:07:48.052Z,2.60
2022-11-10T14:10:47.368Z,2.20
2022-11-10T14:13:43.941Z,2.50
2022-11-10T14:16:40.789Z,2.30
2022-11-10T14:19:38.091Z,2.20
2022-11-10T14:22:42.722Z,2.45
2022-11-10T14:25:47.871Z,2.25
2022-11-10T16:21:49.294Z,2.70
2022-11-10T16:24:36.068Z,2.50
2022-11-10T16:27:22.934Z,2.40
2022-11-10T16:30:13.907Z,2.33
2022-11-10T16:33:01.384Z,2.67
2022-11-10T16:35:54.064Z,2.30
2022-11-10T16:38:55.141Z,3.00
2022-11-10T16:41:42.456Z,2.20
2022-11-10T16:44:29.594Z,2.40
2022-11-10T16:47:21.625Z,2.50
2022-11-10T16:50:25.533Z,2.17
2022-11-10T16:53:17.152Z,2.47
2022-11-10T16:56:06.848Z,3.00
2022-11-10T16:58:53.523Z,2.73
2022-11-10T17:01:43.169Z,2.60
2022-11-10T17:04:29.875Z,2.73
2022-11-10T17:07:16.964Z,2.60
2022-11-10T17:10:03.928Z,2.67
2022-11-10T17:12:53.046Z,2.80
2022-11-10T17:15:40.958Z,2.90
2022-11-10T17:18:29.099Z,2.73
2022-11-10T17:21:16.567Z,12.20
2022-11-10T17:24:04.875Z,9.97
2022-11-10T17:26:52.056Z,6.17
2022-11-10T17:29:40.263Z,8.00
2022-11-10T17:32:50.009Z,4.50
2022-11-10T17:35:40.100Z,4.30
2022-11-10T17:38:30.252Z,4.60
2022-11-10T17:41:19.521Z,3.37
2022-11-10T17:44:06.434Z,2.77
2022-11-10T17:46:54.572Z,2.90
2022-11-10T17:49:41.551Z,3.10
2022-11-10T17:52:28.476Z,4.47
2022-11-10T17:55:18.962Z,3.30
2022-11-10T17:58:06.080Z,3.00
2022-11-10T18:00:52.520Z,2.60
2022-11-10T18:03:41.283Z,4.40
2022-11-10T18:06:29.081Z,3.37
2022-11-10T18:09:16.150Z,3.53
2022-11-10T18:12:05.514Z,3.13
2022-11-10T18:14:52.327Z,3.33
2022-11-10T18:17:40.116Z,3.03
2022-11-10T18:20:29.104Z,3.10
2022-11-10T18:23:16.446Z,3.10
2022-11-10T18:26:08.425Z,3.50
2022-11-10T18:28:56.035Z,9.00
2022-11-10T18:31:42.881Z,3.80
2022-11-10T18:34:33.024Z,3.50
2022-11-10T18:37:21.299Z,3.37
2022-11-10T18:40:09.957Z,3.37
2022-11-10T18:43:00.769Z,3.97
2022-11-10T18:45:54.716Z,3.57
2022-11-10T18:48:42.665Z,3.33
2022-11-10T18:54:37.121Z,3.13
2022-11-10T18:57:23.505Z,7.37
2022-11-10T19:00:13.268Z,6.00
2022-11-10T19:06:23.357Z,3.60
2022-11-10T19:09:13.271Z,3.30
2022-11-10T19:12:00.968Z,4.00
2022-11-10T19:14:47.657Z,4.17
2022-11-10T19:17:34.467Z,3.77
2022-11-10T19:20:20.607Z,4.50
2022-11-10T19:23:07.991Z,3.27
2022-11-10T19:26:01.001Z,3.60
2022-11-10T19:28:49.948Z,3.27
2022-11-10T19:31:36.342Z,3.67
2022-11-10T19:34:22.948Z,3.70
2022-11-10T19:56:13.718Z,5.93
2022-11-10T20:47:17.664Z,22.13
2022-11-10T21:08:54.740Z,5.07
2022-11-10T21:12:00.200Z,4.87
2022-11-10T21:14:56.887Z,5.77
2022-11-10T21:22:01.762Z,9.70
2022-11-10T21:24:51.263Z,11.00
2022-11-10T21:39:33.156Z,8.97
2022-11-10T21:42:21.674Z,7.77
2022-11-10T21:45:09.733Z,5.37
2022-11-10T21:48:00.836Z,5.30
2022-11-10T21:50:47.584Z,5.73
2022-11-10T21:53:35.167Z,6.07
2022-11-10T21:56:23.022Z,5.57
2022-11-10T21:59:09.695Z,5.70
2022-11-10T22:01:56.041Z,5.60
2022-11-10T22:04:42.465Z,6.77
2022-11-10T22:07:30.448Z,6.07
2022-11-10T22:10:35.174Z,5.73
2022-11-10T22:13:40.806Z,6.03
2022-11-10T22:16:47.151Z,6.37
2022-11-10T22:19:34.928Z,6.27
2022-11-10T22:22:21.710Z,6.20
2022-11-10T22:25:08.919Z,6.53
2022-11-10T22:27:55.584Z,6.53
2022-11-10T22:30:43.618Z,6.80
2022-11-10T22:33:34.548Z,7.13
2022-11-10T22:36:22.107Z,6.53
2022-11-10T22:39:09.108Z,6.33
2022-11-10T22:42:13.298Z,6.77
2022-11-10T22:45:00.234Z,6.63
2022-11-10T22:48:05.705Z,6.50
2022-11-10T22:50:56.106Z,6.90
2022-11-10T22:53:42.927Z,6.90
2022-11-10T22:56:31.372Z,6.53
2022-11-10T22:59:19.092Z,7.27
2022-11-10T23:02:05.689Z,7.17
2022-11-10T23:04:53.684Z,7.20
2022-11-10T23:07:40.153Z,6.90
2022-11-10T23:10:26.895Z,6.77
2022-11-10T23:13:14.609Z,6.40
2022-11-10T23:16:02.447Z,6.73
2022-11-10T23:18:50.672Z,7.13
2022-11-10T23:21:38.726Z,7.23
2022-11-10T23:24:25.377Z,7.10
2022-11-10T23:27:12.275Z,7.17
2022-11-10T23:29:58.913Z,7.17
2022-11-10T23:32:45.385Z,6.93
2022-11-10T23:35:32.763Z,7.03
2022-11-10T23:38:20.901Z,7.27
2022-11-10T23:41:09.247Z,7.40
2022-11-10T23:43:56.645Z,7.07
2022-11-10T23:46:43.342Z,7.17
2022-11-10T23:49:30.127Z,7.03
2022-11-10T23:52:16.587Z,7.73
2022-11-10T23:55:04.948Z,7.37
2022-11-10T23:57:51.924Z,6.70
